Time;durP1;ratioP1;P1;durP2;ratioP2;P2;SDS_P1;SDS_P2;PMS_P1;PMS_P2;Temp;Humidity;BMP_temperature;BMP_pressure;BME280_temperature;BME280_humidity;BME280_pressure;Samples;Min_cycle;Max_cycle;Signal;HPM_P1;HPM_P2
2023/01/01 00:01:11;;;;;;;9.02;2.55;;;;;;;15.55;58.83;99434.34;5091489;28;20119;-48
2023/01/01 00:03:37;;;;;;;8.40;2.63;;;;;;;15.64;58.51;99456.88;5091553;28;20128;-48
2023/01/01 00:06:11;;;;;;;9.13;2.47;;;;;;;15.63;58.15;99398.88;5091521;28;20494;-48
2023/01/01 00:08:37;;;;;;;10.38;2.85;;;;;;;15.59;58.02;99446.09;5092280;28;20039;-48
2023/01/01 00:11:04;;;;;;;6.05;2.75;;;;;;;15.62;58.73;99434.31;5095318;28;20417;-48
2023/01/01 00:13:31;;;;;;;9.00;2.45;;;;;;;15.76;56.88;99426.06;5095327;28;20024;-48
2023/01/01 00:16:08;;;;;;;4.13;2.17;;;;;;;15.60;57.01;99431.88;5093954;28;20421;-48
2023/01/01 00:18:34;;;;;;;7.55;2.50;;;;;;;15.55;57.69;99419.28;5093939;28;20035;-48
2023/01/01 00:21:05;;;;;;;8.95;4.03;;;;;;;15.49;57.15;99429.91;5094047;28;20398;-48
2023/01/01 00:23:30;;;;;;;9.52;3.10;;;;;;;15.61;57.16;99435.31;5093956;28;20020;-48
2023/01/01 00:25:56;;;;;;;19.58;8.02;;;;;;;15.61;57.38;99414.97;5093467;28;20501;-49
2023/01/01 00:28:22;;;;;;;11.95;3.40;;;;;;;15.64;56.11;99417.19;5095105;28;20031;-48
2023/01/01 00:30:47;;;;;;;8.25;2.70;;;;;;;15.52;56.80;99414.41;5093630;28;20036;-48
2023/01/01 00:33:13;;;;;;;10.02;2.22;;;;;;;15.59;55.98;99419.66;5093650;28;20020;-48
2023/01/01 00:35:38;;;;;;;7.95;2.25;;;;;;;15.57;55.82;99380.19;5093556;28;20107;-48
2023/01/01 00:38:06;;;;;;;9.32;3.42;;;;;;;15.50;55.90;99382.06;5093546;28;20120;-48
2023/01/01 00:40:32;;;;;;;9.32;1.98;;;;;;;15.52;56.05;99395.09;5093387;28;20440;-48
2023/01/01 00:42:57;;;;;;;10.93;3.17;;;;;;;15.55;56.49;99386.72;5095009;28;20016;-48
2023/01/01 00:45:23;;;;;;;11.38;2.40;;;;;;;15.57;55.53;99397.88;5093582;28;20035;-48
2023/01/01 00:47:53;;;;;;;15.68;4.00;;;;;;;15.51;55.84;99381.06;5093406;28;20020;-48
2023/01/01 00:50:20;;;;;;;12.10;2.55;;;;;;;15.62;55.51;99381.38;5093318;28;20500;-48
2023/01/01 00:52:47;;;;;;;9.57;2.78;;;;;;;15.66;54.60;99398.44;5093361;28;20111;-48
2023/01/01 00:55:13;;;;;;;15.35;3.70;;;;;;;15.70;54.70;99395.16;5094520;28;20069;-48
2023/01/01 00:57:39;;;;;;;10.88;2.88;;;;;;;15.72;53.42;99395.78;5093151;28;20024;-48
2023/01/01 01:00:05;;;;;;;8.25;2.65;;;;;;;15.64;53.97;99398.66;5093109;28;20028;-48
2023/01/01 01:02:31;;;;;;;14.32;3.00;;;;;;;15.55;53.72;99397.28;5092963;28;20020;-47
2023/01/01 01:04:56;;;;;;;7.45;2.20;;;;;;;15.45;54.39;99386.38;5093036;28;20024;-48
2023/01/01 01:07:22;;;;;;;13.88;3.30;;;;;;;15.50;54.04;99387.38;5092917;28;20030;-48
2023/01/01 01:09:48;;;;;;;7.13;1.77;;;;;;;15.58;53.38;99396.88;5094255;28;20060;-48
2023/01/01 01:12:13;;;;;;;12.18;3.25;;;;;;;15.52;54.30;99395.09;5094470;28;20181;-48
2023/01/01 01:14:39;;;;;;;8.23;2.50;;;;;;;15.47;53.83;99389.63;5092860;28;20028;-48
2023/01/01 01:17:04;;;;;;;9.13;2.55;;;;;;;15.41;54.55;99358.75;5094074;28;20024;-48
2023/01/01 01:19:30;;;;;;;13.30;3.00;;;;;;;15.48;54.71;99322.47;5092347;28;20573;-48
2023/01/01 01:21:55;;;;;;;6.85;1.83;;;;;;;15.41;54.29;99396.56;5093970;28;20012;-48
2023/01/01 01:24:21;;;;;;;8.57;2.50;;;;;;;15.31;54.72;99385.66;5092699;28;20513;-48
2023/01/01 01:26:47;;;;;;;8.85;2.50;;;;;;;15.30;55.23;99415.78;5093616;28;20127;-48
2023/01/01 01:29:12;;;;;;;9.05;2.92;;;;;;;15.26;55.41;99420.69;5093934;28;20024;-48
2023/01/01 01:31:38;;;;;;;9.43;2.38;;;;;;;15.25;55.35;99431.47;5092461;28;20028;-48
2023/01/01 01:34:04;;;;;;;8.32;2.40;;;;;;;15.15;55.69;99432.75;5093888;28;20019;-48
2023/01/01 01:36:29;;;;;;;12.63;3.15;;;;;;;15.13;56.04;99444.53;5092356;28;20110;-48
2023/01/01 01:38:55;;;;;;;13.93;2.92;;;;;;;15.18;56.24;99442.09;5092431;28;20020;-48
2023/01/01 01:41:23;;;;;;;8.05;2.90;;;;;;;15.30;56.16;99458.91;5093560;28;20020;-48
2023/01/01 01:44:41;;;;;;;12.68;2.80;;;;;;;15.28;55.48;99445.09;5093618;28;20020;-48
2023/01/01 01:47:25;;;;;;;11.88;2.88;;;;;;;15.20;56.15;99461.22;5093469;28;20029;-49
2023/01/01 01:50:02;;;;;;;12.60;3.83;;;;;;;15.22;56.47;99464.44;5092424;28;20106;-48
2023/01/01 01:52:31;;;;;;;9.48;2.95;;;;;;;15.24;56.10;99469.53;5093469;28;20035;-48
2023/01/01 01:54:57;;;;;;;11.48;2.65;;;;;;;15.12;56.41;99469.38;5092032;28;20391;-48
2023/01/01 01:57:23;;;;;;;7.00;2.90;;;;;;;15.10;56.80;99466.13;5092309;28;20102;-48
2023/01/01 01:59:53;;;;;;;9.85;3.00;;;;;;;15.06;56.56;99468.38;5093296;28;20028;-48
2023/01/01 02:02:47;;;;;;;7.60;2.70;;;;;;;14.90;57.04;99469.66;5093173;28;20422;-48
2023/01/01 02:05:13;;;;;;;8.52;2.50;;;;;;;14.87;57.06;99480.66;5091925;28;20047;-48
2023/01/01 02:07:38;;;;;;;8.02;2.78;;;;;;;14.87;57.16;99477.19;5093135;28;20055;-49
2023/01/01 02:10:05;;;;;;;11.10;2.60;;;;;;;14.80;57.51;99482.50;5093095;28;20051;-48
2023/01/01 02:12:30;;;;;;;11.23;2.78;;;;;;;14.81;57.58;99492.06;5091724;28;20059;-48
2023/01/01 02:14:56;;;;;;;10.85;3.38;;;;;;;14.79;58.09;99494.09;5091687;28;20062;-48
2023/01/01 02:17:38;;;;;;;12.95;2.95;;;;;;;14.92;57.73;99494.06;5092943;28;20020;-48
2023/01/01 02:20:32;;;;;;;8.68;3.05;;;;;;;14.92;57.53;99501.97;5092978;28;20036;-48
2023/01/01 02:23:19;;;;;;;5.78;2.72;;;;;;;14.82;57.67;99498.16;5091470;28;20514;-48
2023/01/01 02:26:10;;;;;;;6.95;2.67;;;;;;;14.72;57.88;99480.91;5092752;28;20490;-48
2023/01/01 02:28:35;;;;;;;7.75;2.30;;;;;;;14.70;58.19;99475.00;5092785;28;20114;-48
2023/01/01 02:31:01;;;;;;;13.88;3.22;;;;;;;14.71;58.06;99481.94;5091913;28;20103;-48
2023/01/01 02:33:28;;;;;;;11.98;3.20;;;;;;;14.67;58.56;99478.09;5092628;28;20145;-48
2023/01/01 02:36:00;;;;;;;8.00;2.33;;;;;;;14.80;58.00;99487.00;5092636;28;20023;-48
2023/01/01 02:38:33;;;;;;;10.32;2.28;;;;;;;14.76;58.00;99470.72;5092544;28;20024;-48
2023/01/01 02:41:07;;;;;;;8.60;3.35;;;;;;;14.81;58.03;99484.16;5092502;28;20020;-48
2023/01/01 02:43:33;;;;;;;6.15;2.38;;;;;;;14.71;58.19;99487.22;5092579;28;20061;-48
2023/01/01 02:46:03;;;;;;;15.82;3.05;;;;;;;14.73;59.05;99487.00;5092430;28;20108;-48
2023/01/01 02:48:40;;;;;;;11.38;2.72;;;;;;;14.80;58.42;99484.34;5091385;28;20557;-48
2023/01/01 02:51:37;;;;;;;6.35;2.00;;;;;;;14.95;57.56;99485.72;5092403;28;20028;-48
2023/01/01 02:54:38;;;;;;;8.75;2.92;;;;;;;15.07;57.95;99487.69;5091086;28;20149;-47
2023/01/01 02:57:25;;;;;;;7.05;2.70;;;;;;;15.09;57.21;99481.19;5092556;28;20398;-48
2023/01/01 03:00:22;;;;;;;11.02;2.30;;;;;;;14.78;58.26;99489.81;5092277;28;20080;-48
2023/01/01 03:03:19;;;;;;;8.35;2.00;;;;;;;14.80;58.31;99473.78;5092113;28;20085;-48
2023/01/01 03:06:27;;;;;;;10.18;2.13;;;;;;;14.75;58.17;99471.78;5090841;28;20085;-48
2023/01/01 03:09:04;;;;;;;7.32;2.28;;;;;;;14.67;58.54;99471.97;5090926;28;20401;-48
2023/01/01 03:11:45;;;;;;;13.02;2.63;;;;;;;14.74;58.59;99462.19;5091978;28;20489;-48
2023/01/01 03:14:33;;;;;;;9.45;2.28;;;;;;;14.68;58.83;99468.31;5092018;28;20588;-48
2023/01/01 03:17:10;;;;;;;4.13;1.60;;;;;;;14.60;59.14;99479.91;5080008;28;20459;-48
2023/01/01 03:19:40;;;;;;;8.02;2.60;;;;;;;14.45;59.28;99477.50;5075021;28;20122;-48
2023/01/01 03:22:12;;;;;;;7.53;2.22;;;;;;;14.36;59.59;99476.88;5090551;28;20299;-48
2023/01/01 03:24:43;;;;;;;6.15;2.08;;;;;;;14.38;59.59;99464.28;5091862;28;20024;-48
2023/01/01 03:27:18;;;;;;;3.55;2.05;;;;;;;14.34;59.92;99465.69;5090270;28;20123;-48
2023/01/01 03:29:46;;;;;;;7.55;2.80;;;;;;;14.28;59.85;99463.09;5091950;28;20132;-48
2023/01/01 03:32:20;;;;;;;6.97;2.28;;;;;;;14.27;59.92;99459.63;5090906;28;20420;-48
2023/01/01 03:34:52;;;;;;;10.93;2.20;;;;;;;14.22;60.07;99456.78;5090941;28;20036;-48
2023/01/01 03:37:27;;;;;;;8.82;2.08;;;;;;;14.30;60.02;99461.03;5090527;28;20031;-48
2023/01/01 03:39:57;;;;;;;7.60;3.35;;;;;;;14.34;59.82;99455.13;5091826;28;20062;-48
2023/01/01 03:42:33;;;;;;;6.72;2.40;;;;;;;14.33;59.73;99452.72;5093577;28;20032;-48
2023/01/01 03:45:23;;;;;;;5.57;2.00;;;;;;;14.41;59.60;99456.97;5096186;28;20093;-48
2023/01/01 03:47:49;;;;;;;11.43;3.22;;;;;;;14.41;59.79;99443.75;5094547;28;20020;-48
2023/01/01 03:50:16;;;;;;;11.68;2.58;;;;;;;14.52;59.93;99472.97;5095781;28;20486;-48
2023/01/01 03:52:47;;;;;;;7.82;2.22;;;;;;;14.55;59.21;99462.03;5095991;28;20062;-48
2023/01/01 03:55:41;;;;;;;10.50;2.33;;;;;;;14.57;59.79;99461.84;5095681;28;20024;-48
2023/01/01 03:58:26;;;;;;;9.32;2.67;;;;;;;14.60;59.50;99479.91;5077537;28;20024;-48
2023/01/01 04:01:03;;;;;;;13.98;2.65;;;;;;;14.57;59.63;99480.34;5095595;28;20028;-48
2023/01/01 04:03:31;;;;;;;10.45;3.33;;;;;;;14.56;59.47;99462.84;5095591;28;20028;-48
2023/01/01 04:05:57;;;;;;;8.93;2.60;;;;;;;14.73;59.50;99442.09;5095486;28;20020;-48
2023/01/01 04:08:22;;;;;;;9.65;3.10;;;;;;;14.83;60.77;99445.09;5095439;28;20022;-48
2023/01/01 04:10:56;;;;;;;10.95;6.15;;;;;;;14.91;60.44;99444.88;5095410;28;20032;-48
2023/01/01 04:13:21;;;;;;;14.60;4.13;;;;;;;14.96;60.16;99429.19;5095379;28;20093;-48
2023/01/01 04:15:47;;;;;;;10.80;3.05;;;;;;;14.95;58.63;99424.94;5094010;28;20494;-48
2023/01/01 04:18:13;;;;;;;12.00;2.90;;;;;;;14.83;58.84;99423.13;5094246;28;20028;-48
2023/01/01 04:20:38;;;;;;;10.90;2.60;;;;;;;14.78;59.04;99427.22;5095210;28;20054;-48
2023/01/01 04:23:04;;;;;;;9.70;2.50;;;;;;;14.71;58.50;99421.16;5095130;28;20030;-48
2023/01/01 04:25:30;;;;;;;8.52;2.05;;;;;;;14.72;58.87;99425.41;5095165;28;20031;-48
2023/01/01 04:28:02;;;;;;;10.13;2.83;;;;;;;14.72;58.92;99441.25;5094949;28;20112;-48
2023/01/01 04:30:28;;;;;;;9.18;2.63;;;;;;;14.66;58.94;99436.81;5095157;28;20020;-48
2023/01/01 04:32:54;;;;;;;9.75;2.30;;;;;;;14.64;58.96;99453.91;5095022;28;20024;-48
2023/01/01 04:35:20;;;;;;;10.48;2.67;;;;;;;14.66;58.98;99452.66;5094843;28;20024;-48
2023/01/01 04:37:45;;;;;;;12.23;2.40;;;;;;;14.79;58.80;99457.13;5093577;28;20119;-48
2023/01/01 04:40:12;;;;;;;9.82;2.00;;;;;;;14.87;58.08;99450.75;5095073;28;20012;-48
2023/01/01 04:42:38;;;;;;;8.90;2.78;;;;;;;14.80;58.46;99448.16;5094779;28;20028;-48
2023/01/01 04:45:04;;;;;;;8.07;2.83;;;;;;;14.80;58.23;99429.66;5094634;28;20026;-48
2023/01/01 04:47:30;;;;;;;12.38;2.60;;;;;;;14.83;58.11;99450.41;5093364;28;20030;-48
2023/01/01 04:49:56;;;;;;;14.98;2.28;;;;;;;14.86;57.54;99457.88;5094728;28;20103;-48
2023/01/01 04:52:21;;;;;;;13.88;2.60;;;;;;;14.75;58.09;99446.16;5093233;28;20032;-48
2023/01/01 04:54:47;;;;;;;12.65;3.13;;;;;;;14.80;58.42;99458.72;5093777;28;20020;-48
2023/01/01 04:57:13;;;;;;;11.07;3.05;;;;;;;14.86;57.85;99446.50;5095028;28;20028;-48
2023/01/01 04:59:40;;;;;;;14.63;3.53;;;;;;;14.93;58.04;99447.28;5093200;28;20025;-48
2023/01/01 05:02:06;;;;;;;10.15;2.63;;;;;;;15.04;57.38;99445.81;5093015;28;20086;-48
2023/01/01 05:04:32;;;;;;;10.93;2.35;;;;;;;14.99;57.32;99451.75;5094365;28;20024;-48
2023/01/01 05:06:58;;;;;;;13.95;2.38;;;;;;;14.86;57.21;99436.75;5094339;28;20031;-49
2023/01/01 05:09:24;;;;;;;11.02;3.17;;;;;;;14.75;57.50;99440.88;5094292;28;20024;-48
2023/01/01 05:11:49;;;;;;;12.43;2.90;;;;;;;14.72;58.51;99475.63;5094246;28;20079;-48
2023/01/01 05:14:15;;;;;;;7.85;2.47;;;;;;;14.77;58.11;99464.44;5094195;28;20020;-48
2023/01/01 05:16:41;;;;;;;10.75;2.38;;;;;;;14.80;57.92;99447.34;5094183;28;20077;-48
2023/01/01 05:19:07;;;;;;;7.82;2.60;;;;;;;14.85;58.01;99464.22;5092835;28;20020;-48
2023/01/01 05:21:38;;;;;;;6.88;2.38;;;;;;;14.89;57.50;99465.41;5094213;28;20114;-48
2023/01/01 05:24:07;;;;;;;8.23;2.75;;;;;;;14.92;57.80;99466.81;5094278;28;20375;-48
2023/01/01 05:26:41;;;;;;;16.10;3.15;;;;;;;14.89;57.72;99457.47;5093736;28;20055;-48
2023/01/01 05:29:07;;;;;;;8.68;2.45;;;;;;;14.94;57.47;99439.16;5094009;28;20024;-48
2023/01/01 05:31:34;;;;;;;8.15;2.42;;;;;;;14.90;56.93;99468.84;5093831;28;20024;-48
2023/01/01 05:34:01;;;;;;;10.18;2.55;;;;;;;14.81;57.41;99465.66;5093813;28;20393;-48
2023/01/01 05:36:30;;;;;;;7.90;2.20;;;;;;;14.77;57.71;99465.25;5093710;28;20509;-48
2023/01/01 05:38:56;;;;;;;14.40;2.50;;;;;;;14.70;58.04;99464.44;5092406;28;20016;-48
2023/01/01 05:41:22;;;;;;;10.57;2.67;;;;;;;14.68;58.18;99461.19;5092278;28;20136;-48
2023/01/01 05:43:49;;;;;;;15.60;3.42;;;;;;;14.69;57.82;99478.69;5093602;28;20725;-48
2023/01/01 05:46:21;;;;;;;9.93;3.00;;;;;;;14.62;58.26;99471.78;5092228;28;20123;-48
2023/01/01 05:48:47;;;;;;;12.65;2.45;;;;;;;14.61;58.11;99470.16;5093491;28;20032;-48
2023/01/01 05:51:16;;;;;;;12.43;3.17;;;;;;;14.59;58.07;99467.75;5092129;28;20028;-48
2023/01/01 05:53:43;;;;;;;10.50;2.60;;;;;;;14.55;58.41;99455.94;5092129;28;20020;-48
2023/01/01 05:56:09;;;;;;;10.60;2.50;;;;;;;14.66;58.04;99457.16;5093330;28;20089;-49
2023/01/01 05:58:35;;;;;;;12.13;3.30;;;;;;;14.65;58.05;99426.44;5092028;28;20432;-48
2023/01/01 06:01:09;;;;;;;10.00;3.05;;;;;;;14.58;58.44;99452.91;5092096;28;20035;-48
2023/01/01 06:03:35;;;;;;;16.08;4.97;;;;;;;14.58;58.56;99423.84;5091981;28;20057;-48
2023/01/01 06:06:07;;;;;;;10.50;2.97;;;;;;;14.65;58.30;99427.28;5093154;28;20089;-48
2023/01/01 06:08:33;;;;;;;8.60;2.38;;;;;;;14.70;57.87;99430.09;5093173;28;20024;-48
2023/01/01 06:11:03;;;;;;;13.90;3.28;;;;;;;14.76;57.59;99410.75;5093033;28;20028;-48
2023/01/01 06:13:30;;;;;;;10.52;2.50;;;;;;;14.70;57.80;99426.66;5093079;28;20024;-48
2023/01/01 06:15:56;;;;;;;9.55;2.90;;;;;;;14.64;58.25;99430.94;5092991;28;20059;-49
2023/01/01 06:18:23;;;;;;;11.23;2.33;;;;;;;14.67;58.49;99425.25;5092969;28;20024;-48
2023/01/01 06:20:50;;;;;;;14.02;3.45;;;;;;;14.67;58.96;99435.81;5092813;28;20030;-48
2023/01/01 06:23:15;;;;;;;8.10;2.70;;;;;;;14.65;58.33;99411.44;5092847;28;20023;-48
2023/01/01 06:25:41;;;;;;;13.93;2.55;;;;;;;14.65;58.11;99435.22;5093074;28;20036;-48
2023/01/01 06:28:07;;;;;;;9.10;2.72;;;;;;;14.57;58.38;99441.53;5092492;28;20135;-48
2023/01/01 06:30:33;;;;;;;9.02;2.47;;;;;;;14.48;58.58;99440.09;5091351;28;20497;-49
2023/01/01 06:32:59;;;;;;;5.90;2.90;;;;;;;14.36;59.00;99447.03;5092918;28;20035;-48
2023/01/01 06:35:27;;;;;;;7.50;3.45;;;;;;;14.47;59.30;99461.44;5091314;28;20092;-48
2023/01/01 06:37:52;;;;;;;13.13;2.67;;;;;;;14.57;58.97;99465.31;5092859;28;20032;-49
2023/01/01 06:40:18;;;;;;;10.75;2.70;;;;;;;14.47;59.44;99464.88;5091198;28;20028;-48
2023/01/01 06:42:44;;;;;;;10.02;3.05;;;;;;;14.41;59.62;99460.44;5092442;28;20028;-48
2023/01/01 06:45:10;;;;;;;10.23;3.05;;;;;;;14.24;60.16;99457.38;5091080;28;20162;-48
2023/01/01 06:47:36;;;;;;;13.15;2.58;;;;;;;14.13;60.56;99477.31;5092392;28;20145;-48
2023/01/01 06:50:03;;;;;;;9.32;2.88;;;;;;;14.11;60.78;99465.34;5092361;28;20513;-48
2023/01/01 06:52:29;;;;;;;8.93;2.85;;;;;;;14.09;60.84;99470.00;5092393;28;20024;-48
2023/01/01 06:54:54;;;;;;;13.43;2.83;;;;;;;14.08;60.86;99471.00;5092584;28;20100;-48
2023/01/01 06:57:21;;;;;;;9.13;3.17;;;;;;;14.03;61.10;99468.19;5092296;28;20024;-48
2023/01/01 06:59:46;;;;;;;11.77;2.47;;;;;;;14.05;61.31;99466.97;5092269;28;20069;-48
2023/01/01 07:02:12;;;;;;;10.00;2.72;;;;;;;14.05;61.47;99472.25;5092081;28;20443;-48
2023/01/01 07:04:38;;;;;;;9.25;2.92;;;;;;;14.12;61.33;99480.16;5092235;28;20028;-48
2023/01/01 07:07:04;;;;;;;9.43;2.72;;;;;;;14.09;61.63;99473.47;5092101;28;20081;-48
2023/01/01 07:09:30;;;;;;;10.65;2.58;;;;;;;14.07;61.62;99470.22;5090783;28;20070;-48
2023/01/01 07:11:55;;;;;;;13.50;3.17;;;;;;;13.96;61.71;99478.72;5092045;28;20067;-48
2023/01/01 07:14:21;;;;;;;13.93;2.95;;;;;;;13.85;62.04;99479.34;5090758;28;20382;-48
2023/01/01 07:16:46;;;;;;;9.10;2.63;;;;;;;13.84;62.40;99477.69;5090294;28;20116;-48
2023/01/01 07:19:12;;;;;;;10.68;2.60;;;;;;;13.85;62.51;99480.16;5090693;28;20111;-48
2023/01/01 07:21:46;;;;;;;11.57;3.05;;;;;;;13.88;62.45;99481.56;5090507;28;20035;-48
2023/01/01 07:24:14;;;;;;;8.50;3.00;;;;;;;13.96;62.52;99484.84;5091915;28;20050;-48
2023/01/01 07:26:40;;;;;;;10.15;2.60;;;;;;;13.96;62.02;99476.09;5091811;28;20116;-48
2023/01/01 07:29:07;;;;;;;9.88;2.65;;;;;;;13.96;62.38;99487.47;5092093;28;20052;-48
2023/01/01 07:31:37;;;;;;;14.70;3.17;;;;;;;14.03;61.94;99491.94;5090582;28;20032;-48
2023/01/01 07:34:04;;;;;;;7.93;2.67;;;;;;;14.02;61.71;99487.66;5091874;28;20092;-48
2023/01/01 07:36:30;;;;;;;8.45;2.33;;;;;;;14.06;61.80;99491.53;5091807;28;20028;-48
2023/01/01 07:38:56;;;;;;;10.43;2.97;;;;;;;14.18;61.87;99481.97;5092028;28;20394;-48
2023/01/01 07:41:21;;;;;;;9.77;2.95;;;;;;;14.51;60.76;99481.94;5090337;28;20024;-48
2023/01/01 07:43:50;;;;;;;12.30;3.80;;;;;;;14.82;60.29;99483.09;5091813;28;20024;-48
2023/01/01 07:46:17;;;;;;;8.45;2.97;;;;;;;15.12;59.29;99486.03;5091694;28;20032;-48
2023/01/01 07:48:43;;;;;;;10.77;2.88;;;;;;;15.46;58.25;99488.53;5091704;28;20013;-49
2023/01/01 07:51:08;;;;;;;10.43;2.70;;;;;;;15.87;56.36;99487.28;5091629;28;20055;-48
2023/01/01 07:53:34;;;;;;;11.38;2.47;;;;;;;16.05;56.05;99494.47;5091684;28;20105;-48
2023/01/01 07:56:00;;;;;;;6.63;2.58;;;;;;;16.03;55.69;99499.97;5090259;28;20028;-48
2023/01/01 07:58:25;;;;;;;8.70;2.67;;;;;;;15.86;55.65;99480.38;5090281;28;20117;-48
2023/01/01 08:00:51;;;;;;;6.47;2.45;;;;;;;15.68;56.10;99483.72;5091485;28;20028;-48
2023/01/01 08:03:17;;;;;;;9.30;2.60;;;;;;;15.60;56.61;99505.97;5091543;28;20028;-48
2023/01/01 08:05:42;;;;;;;6.13;2.30;;;;;;;15.55;56.46;99497.84;5091458;28;20501;-48
2023/01/01 08:08:09;;;;;;;8.52;2.88;;;;;;;15.34;57.31;99493.69;5091483;28;20401;-48
2023/01/01 08:10:35;;;;;;;10.70;2.95;;;;;;;15.22;57.29;99482.97;5091376;28;20112;-48
2023/01/01 08:13:03;;;;;;;12.07;3.53;;;;;;;15.09;57.85;99483.00;5091656;28;20076;-48
2023/01/01 08:15:29;;;;;;;10.15;3.00;;;;;;;15.05;58.28;99484.44;5091723;28;20389;-48
2023/01/01 08:17:59;;;;;;;9.82;2.80;;;;;;;15.09;58.78;99480.38;5091418;28;20104;-48
2023/01/01 08:20:27;;;;;;;10.35;3.00;;;;;;;15.14;58.56;99486.66;5091427;28;20081;-48
2023/01/01 08:22:53;;;;;;;9.77;2.70;;;;;;;15.23;58.15;99492.53;5091519;28;20092;-48
2023/01/01 08:25:19;;;;;;;11.52;2.92;;;;;;;15.32;57.67;99474.56;5090021;28;20055;-48
2023/01/01 08:27:45;;;;;;;8.63;3.22;;;;;;;15.52;57.53;99485.03;5089813;28;20072;-48
2023/01/01 08:30:14;;;;;;;13.13;2.72;;;;;;;16.02;56.04;99476.34;5094085;28;20438;-48
2023/01/01 08:32:39;;;;;;;12.02;3.13;;;;;;;16.41;54.61;99485.81;5095273;28;20020;-48
2023/01/01 08:35:06;;;;;;;6.95;2.10;;;;;;;16.67;53.62;99489.22;5093646;28;20174;-48
2023/01/01 08:37:31;;;;;;;12.65;2.83;;;;;;;16.80;53.40;99477.66;5094970;28;20463;-48
2023/01/01 08:39:57;;;;;;;9.68;2.80;;;;;;;17.04;52.56;99479.44;5094864;28;20031;-48
2023/01/01 08:42:23;;;;;;;7.85;2.60;;;;;;;17.21;52.01;99468.22;5094778;28;20062;-48
2023/01/01 08:44:48;;;;;;;9.38;2.72;;;;;;;17.49;51.37;99480.91;5093499;28;20400;-48
2023/01/01 08:47:26;;;;;;;17.42;3.05;;;;;;;17.73;51.13;99469.31;5094690;28;20074;-46
2023/01/01 08:49:51;;;;;;;9.80;2.72;;;;;;;17.94;51.19;99478.59;5093531;28;20102;-46
2023/01/01 08:52:18;;;;;;;9.20;2.80;;;;;;;18.13;50.14;99482.00;5093353;28;20541;-46
2023/01/01 08:54:43;;;;;;;11.63;2.88;;;;;;;18.65;49.60;99475.16;5093350;28;20021;-46
2023/01/01 08:57:10;;;;;;;9.05;2.63;;;;;;;18.93;47.95;99485.06;5094781;28;20030;-46
2023/01/01 08:59:35;;;;;;;10.20;2.67;;;;;;;19.33;47.66;99473.59;5093247;28;20086;-46
2023/01/01 09:02:01;;;;;;;13.10;2.85;;;;;;;20.02;46.51;99469.97;5094631;28;20028;-46
2023/01/01 09:04:27;;;;;;;16.23;3.42;;;;;;;20.44;45.78;99474.88;5093110;28;20512;-46
2023/01/01 09:06:53;;;;;;;7.47;2.50;;;;;;;20.74;44.40;99482.50;5094400;28;20055;-46
2023/01/01 09:09:19;;;;;;;12.75;3.08;;;;;;;21.17;43.69;99474.72;5093042;28;20040;-46
2023/01/01 09:11:53;;;;;;;9.50;2.67;;;;;;;21.33;42.97;99485.31;5094314;28;20501;-46
2023/01/01 09:14:19;;;;;;;8.70;2.35;;;;;;;21.74;41.77;99488.41;5076390;28;20039;-46
2023/01/01 09:16:45;;;;;;;8.25;2.17;;;;;;;21.68;41.34;99478.75;5094492;28;20056;-46
2023/01/01 09:19:11;;;;;;;5.75;2.35;;;;;;;21.62;40.58;99487.75;5094129;28;20088;-46
2023/01/01 09:21:36;;;;;;;5.47;2.08;;;;;;;21.64;40.64;99468.81;5092768;28;20489;-46
2023/01/01 09:24:02;;;;;;;10.40;2.28;;;;;;;21.55;40.82;99471.16;5094074;28;20025;-46
2023/01/01 09:26:28;;;;;;;9.63;2.47;;;;;;;21.46;40.75;99464.66;5093813;28;20507;-46
2023/01/01 09:28:53;;;;;;;7.38;2.22;;;;;;;21.38;40.37;99467.75;5092680;28;20367;-46
2023/01/01 09:31:19;;;;;;;10.63;2.47;;;;;;;21.19;41.00;99467.25;5092560;28;20024;-46
2023/01/01 09:33:44;;;;;;;7.93;2.45;;;;;;;21.20;41.07;99468.91;5093875;28;20073;-46
2023/01/01 09:36:19;;;;;;;8.25;2.60;;;;;;;21.17;41.66;99461.38;5092456;28;20028;-45
2023/01/01 09:38:52;;;;;;;13.82;4.00;;;;;;;21.47;41.50;99460.91;5093770;28;20063;-46
2023/01/01 09:41:36;;;;;;;7.05;2.08;;;;;;;21.63;40.20;99456.50;5093535;28;20459;-46
2023/01/01 09:44:19;;;;;;;7.90;2.13;;;;;;;21.41;40.62;99454.69;5093991;28;20416;-46
2023/01/01 09:46:44;;;;;;;9.95;2.83;;;;;;;21.52;41.13;99437.72;5093682;28;20031;-46
2023/01/01 09:49:37;;;;;;;13.05;3.08;;;;;;;22.02;40.43;99443.72;5093586;28;20367;-46
2023/01/01 09:52:04;;;;;;;8.85;2.88;;;;;;;22.13;39.59;99432.06;5093531;28;20063;-46
2023/01/01 09:54:36;;;;;;;7.75;2.00;;;;;;;22.05;39.22;99432.50;5092517;28;20221;-46
2023/01/01 09:57:07;;;;;;;8.95;2.28;;;;;;;21.82;39.70;99438.25;5092095;28;20028;-46
2023/01/01 09:59:33;;;;;;;6.28;2.10;;;;;;;21.82;39.94;99427.56;5093676;28;20390;-46
2023/01/01 10:02:23;;;;;;;11.27;2.58;;;;;;;21.81;39.76;99417.91;5091869;28;20035;-46
2023/01/01 10:05:40;;;;;;;9.02;2.33;;;;;;;21.55;40.72;99425.75;5093533;28;20393;-46
2023/01/01 10:08:14;;;;;;;7.53;1.90;;;;;;;21.51;40.21;99424.63;5057776;28;20117;-46
2023/01/01 10:11:15;;;;;;;12.18;3.00;;;;;;;21.36;42.35;99409.25;5093194;28;20020;-46
2023/01/01 10:13:43;;;;;;;9.52;2.40;;;;;;;21.64;41.20;99410.06;5088519;28;20544;-46
2023/01/01 10:16:22;;;;;;;7.65;2.45;;;;;;;21.71;40.70;99411.44;5092954;28;20024;-46
2023/01/01 10:18:53;;;;;;;12.05;2.95;;;;;;;21.46;40.61;99405.88;5091820;28;20041;-46
2023/01/01 10:21:36;;;;;;;10.63;2.60;;;;;;;21.87;40.58;99374.97;5092941;28;20020;-46
2023/01/01 10:24:14;;;;;;;5.95;1.98;;;;;;;21.69;40.91;99404.72;5092949;28;20020;-46
2023/01/01 10:26:40;;;;;;;19.23;3.95;;;;;;;21.35;41.71;99384.41;5091451;28;20164;-46
2023/01/01 10:29:15;;;;;;;12.05;2.13;;;;;;;21.32;42.23;99408.94;5092790;28;20032;-46
2023/01/01 10:31:44;;;;;;;;;;;;;;;21.45;41.62;99394.41;5093203;28;20111;-46
2023/01/01 10:34:26;;;;;;;14.75;3.85;;;;;;;21.48;41.24;99337.81;5092938;28;19916;-46
2023/01/01 10:36:55;;;;;;;13.13;4.00;;;;;;;21.35;42.51;99396.97;5092655;28;20016;-46
2023/01/01 10:39:21;;;;;;;14.90;3.55;;;;;;;21.88;41.83;99389.13;5091317;28;20032;-46
2023/01/01 10:41:47;;;;;;;7.70;2.35;;;;;;;22.46;39.70;99375.81;5092466;28;20151;-46
2023/01/01 10:44:16;;;;;;;8.30;1.98;;;;;;;22.41;38.86;99397.97;5091275;28;20482;-46
2023/01/01 10:46:49;;;;;;;10.05;2.30;;;;;;;21.82;40.16;99388.28;5092452;28;20023;-46
2023/01/01 10:49:15;;;;;;;8.43;2.50;;;;;;;21.54;41.35;99362.69;5091200;28;20028;-46
2023/01/01 10:51:47;;;;;;;10.50;2.78;;;;;;;21.39;41.57;99370.53;5090430;28;20573;-46
2023/01/01 10:54:38;;;;;;;8.25;2.30;;;;;;;21.41;41.13;99381.78;5091158;28;20074;-46
2023/01/01 10:57:29;;;;;;;9.32;2.58;;;;;;;21.48;41.97;99369.06;5091024;28;20031;-46
2023/01/01 11:00:10;;;;;;;7.85;2.58;;;;;;;21.66;41.12;99365.19;5092372;28;20486;-46
2023/01/01 11:02:36;;;;;;;9.88;2.88;;;;;;;21.80;40.79;99362.88;5074087;28;20051;-46
2023/01/01 11:05:20;;;;;;;11.13;2.47;;;;;;;21.88;41.84;99357.84;5090835;28;20024;-46
2023/01/01 11:07:46;;;;;;;15.60;3.67;;;;;;;21.96;45.40;99355.75;5092289;28;20035;-46
2023/01/01 11:10:30;;;;;;;22.23;9.45;;;;;;;21.66;42.22;99360.63;5092357;28;20028;-46
2023/01/01 11:12:56;;;;;;;16.98;8.93;;;;;;;21.56;42.87;99349.88;5090957;28;20020;-46
2023/01/01 11:15:36;;;;;;;16.70;8.40;;;;;;;21.37;42.44;99346.78;5090795;28;20031;-46
2023/01/01 11:18:11;;;;;;;8.90;2.92;;;;;;;21.64;42.10;99341.38;5090780;28;20032;-46
2023/01/01 11:20:36;;;;;;;8.40;2.22;;;;;;;22.10;40.88;99339.00;5092042;28;20031;-46
2023/01/01 11:23:18;;;;;;;7.50;1.90;;;;;;;22.13;40.59;99326.97;5091908;28;20035;-46
2023/01/01 11:26:16;;;;;;;8.15;2.10;;;;;;;22.41;39.93;99333.78;5091888;28;20039;-46
2023/01/01 11:28:59;;;;;;;7.07;1.80;;;;;;;22.44;39.50;99330.59;5057597;28;20077;-46
2023/01/01 11:31:29;;;;;;;13.90;3.25;;;;;;;22.21;40.35;99317.66;5090703;28;20024;-46
2023/01/01 11:33:56;;;;;;;9.10;2.50;;;;;;;22.02;40.59;99326.13;5091912;28;20111;-46
2023/01/01 11:36:29;;;;;;;8.68;2.65;;;;;;;21.83;40.49;99327.59;5090534;28;20375;-46
2023/01/01 11:39:19;;;;;;;10.70;2.33;;;;;;;21.40;41.48;99322.22;5091756;28;20550;-46
2023/01/01 11:41:56;;;;;;;9.68;2.95;;;;;;;21.04;42.19;99313.13;5090443;28;20039;-46
2023/01/01 11:44:50;;;;;;;16.20;2.55;;;;;;;20.72;43.21;99313.88;5091826;28;20032;-46